sensor_id;sensor_type;location;lat;lon;timestamp;P1;durP1;ratioP1;P2;durP2;ratioP2
17618;SDS011;8928;51.678;6.074;2023-03-01T00:00:25;14.10;;;7.03;;
17618;SDS011;8928;51.678;6.074;2023-03-01T00:03:12;14.47;;;7.10;;
17618;SDS011;8928;51.678;6.074;2023-03-01T00:06:01;12.90;;;6.80;;
17618;SDS011;8928;51.678;6.074;2023-03-01T00:08:48;13.53;;;6.47;;
17618;SDS011;8928;51.678;6.074;2023-03-01T00:11:35;16.83;;;7.00;;
17618;SDS011;8928;51.678;6.074;2023-03-01T00:14:22;15.53;;;6.73;;
17618;SDS011;8928;51.678;6.074;2023-03-01T00:17:09;15.00;;;7.07;;
17618;SDS011;8928;51.678;6.074;2023-03-01T00:19:56;13.93;;;6.70;;
17618;SDS011;8928;51.678;6.074;2023-03-01T00:22:45;14.47;;;6.63;;
17618;SDS011;8928;51.678;6.074;2023-03-01T00:25:32;14.30;;;6.83;;
17618;SDS011;8928;51.678;6.074;2023-03-01T00:28:19;15.00;;;6.93;;
17618;SDS011;8928;51.678;6.074;2023-03-01T00:31:07;14.93;;;7.33;;
17618;SDS011;8928;51.678;6.074;2023-03-01T00:33:56;15.50;;;6.90;;
17618;SDS011;8928;51.678;6.074;2023-03-01T00:36:44;12.73;;;6.87;;
17618;SDS011;8928;51.678;6.074;2023-03-01T00:39:33;11.40;;;6.33;;
17618;SDS011;8928;51.678;6.074;2023-03-01T00:42:20;13.33;;;6.60;;
17618;SDS011;8928;51.678;6.074;2023-03-01T00:45:07;14.43;;;6.90;;
17618;SDS011;8928;51.678;6.074;2023-03-01T00:47:55;15.03;;;7.00;;
17618;SDS011;8928;51.678;6.074;2023-03-01T00:50:42;13.43;;;6.70;;
17618;SDS011;8928;51.678;6.074;2023-03-01T00:53:29;16.50;;;7.43;;
17618;SDS011;8928;51.678;6.074;2023-03-01T00:56:17;15.53;;;7.27;;
17618;SDS011;8928;51.678;6.074;2023-03-01T00:59:05;15.17;;;7.00;;
17618;SDS011;8928;51.678;6.074;2023-03-01T01:01:52;18.07;;;7.30;;
17618;SDS011;8928;51.678;6.074;2023-03-01T01:04:39;13.77;;;6.80;;
17618;SDS011;8928;51.678;6.074;2023-03-01T01:07:26;15.50;;;7.20;;
17618;SDS011;8928;51.678;6.074;2023-03-01T01:10:13;15.70;;;7.07;;
17618;SDS011;8928;51.678;6.074;2023-03-01T01:13:03;15.10;;;7.00;;
17618;SDS011;8928;51.678;6.074;2023-03-01T01:15:51;17.03;;;7.43;;
17618;SDS011;8928;51.678;6.074;2023-03-01T01:18:38;19.77;;;8.20;;
17618;SDS011;8928;51.678;6.074;2023-03-01T01:21:25;16.53;;;7.40;;
17618;SDS011;8928;51.678;6.074;2023-03-01T01:24:13;15.17;;;7.80;;
17618;SDS011;8928;51.678;6.074;2023-03-01T01:27:00;18.07;;;7.33;;
17618;SDS011;8928;51.678;6.074;2023-03-01T01:29:49;15.13;;;7.53;;
17618;SDS011;8928;51.678;6.074;2023-03-01T01:32:36;14.37;;;7.37;;
17618;SDS011;8928;51.678;6.074;2023-03-01T01:35:23;18.17;;;7.80;;
17618;SDS011;8928;51.678;6.074;2023-03-01T01:38:10;15.70;;;7.70;;
17618;SDS011;8928;51.678;6.074;2023-03-01T01:40:57;14.40;;;7.40;;
17618;SDS011;8928;51.678;6.074;2023-03-01T01:43:45;15.90;;;7.57;;
17618;SDS011;8928;51.678;6.074;2023-03-01T01:46:35;14.03;;;7.20;;
17618;SDS011;8928;51.678;6.074;2023-03-01T01:49:29;16.73;;;7.53;;
17618;SDS011;8928;51.678;6.074;2023-03-01T01:52:20;16.70;;;7.47;;
17618;SDS011;8928;51.678;6.074;2023-03-01T01:55:11;15.93;;;7.80;;
17618;SDS011;8928;51.678;6.074;2023-03-01T01:58:03;14.30;;;7.17;;
17618;SDS011;8928;51.678;6.074;2023-03-01T02:00:54;14.70;;;7.23;;
17618;SDS011;8928;51.678;6.074;2023-03-01T02:03:44;15.23;;;7.37;;
17618;SDS011;8928;51.678;6.074;2023-03-01T02:06:33;15.87;;;7.50;;
17618;SDS011;8928;51.678;6.074;2023-03-01T02:09:24;17.20;;;7.33;;
17618;SDS011;8928;51.678;6.074;2023-03-01T02:12:13;17.40;;;7.13;;
17618;SDS011;8928;51.678;6.074;2023-03-01T02:15:01;14.03;;;6.87;;
17618;SDS011;8928;51.678;6.074;2023-03-01T02:17:48;16.40;;;7.33;;
17618;SDS011;8928;51.678;6.074;2023-03-01T02:20:39;14.67;;;6.87;;
17618;SDS011;8928;51.678;6.074;2023-03-01T02:23:31;15.73;;;7.23;;
17618;SDS011;8928;51.678;6.074;2023-03-01T02:26:23;16.00;;;7.60;;
17618;SDS011;8928;51.678;6.074;2023-03-01T02:29:17;16.30;;;7.13;;
17618;SDS011;8928;51.678;6.074;2023-03-01T02:32:04;17.37;;;7.40;;
17618;SDS011;8928;51.678;6.074;2023-03-01T02:34:52;16.60;;;7.83;;
17618;SDS011;8928;51.678;6.074;2023-03-01T02:37:41;15.37;;;7.67;;
17618;SDS011;8928;51.678;6.074;2023-03-01T02:40:29;20.70;;;7.63;;
17618;SDS011;8928;51.678;6.074;2023-03-01T02:43:19;14.73;;;7.20;;
17618;SDS011;8928;51.678;6.074;2023-03-01T02:46:15;17.67;;;7.90;;
17618;SDS011;8928;51.678;6.074;2023-03-01T02:49:16;14.27;;;7.33;;
17618;SDS011;8928;51.678;6.074;2023-03-01T02:52:28;16.63;;;7.43;;
17618;SDS011;8928;51.678;6.074;2023-03-01T02:55:23;18.93;;;7.93;;
17618;SDS011;8928;51.678;6.074;2023-03-01T02:58:10;16.63;;;8.23;;
17618;SDS011;8928;51.678;6.074;2023-03-01T03:00:58;16.30;;;7.53;;
17618;SDS011;8928;51.678;6.074;2023-03-01T03:03:47;17.43;;;7.87;;
17618;SDS011;8928;51.678;6.074;2023-03-01T03:06:34;14.87;;;7.47;;
17618;SDS011;8928;51.678;6.074;2023-03-01T03:09:21;17.63;;;7.43;;
17618;SDS011;8928;51.678;6.074;2023-03-01T03:12:08;14.33;;;7.33;;
17618;SDS011;8928;51.678;6.074;2023-03-01T03:14:55;17.60;;;7.87;;
17618;SDS011;8928;51.678;6.074;2023-03-01T03:17:43;16.33;;;8.00;;
17618;SDS011;8928;51.678;6.074;2023-03-01T03:20:32;17.47;;;8.40;;
17618;SDS011;8928;51.678;6.074;2023-03-01T03:23:20;17.07;;;7.80;;
17618;SDS011;8928;51.678;6.074;2023-03-01T03:26:07;16.93;;;7.70;;
17618;SDS011;8928;51.678;6.074;2023-03-01T03:29:00;18.27;;;7.80;;
17618;SDS011;8928;51.678;6.074;2023-03-01T03:31:47;15.63;;;7.60;;
17618;SDS011;8928;51.678;6.074;2023-03-01T03:34:34;16.00;;;8.07;;
17618;SDS011;8928;51.678;6.074;2023-03-01T03:37:22;17.30;;;7.97;;
17618;SDS011;8928;51.678;6.074;2023-03-01T03:40:28;16.03;;;7.60;;
17618;SDS011;8928;51.678;6.074;2023-03-01T03:43:17;17.83;;;7.70;;
17618;SDS011;8928;51.678;6.074;2023-03-01T03:46:05;17.73;;;8.33;;
17618;SDS011;8928;51.678;6.074;2023-03-01T03:48:53;18.30;;;8.10;;
17618;SDS011;8928;51.678;6.074;2023-03-01T03:51:40;17.47;;;7.70;;
17618;SDS011;8928;51.678;6.074;2023-03-01T03:54:28;17.90;;;7.83;;
17618;SDS011;8928;51.678;6.074;2023-03-01T03:57:15;19.17;;;7.87;;
17618;SDS011;8928;51.678;6.074;2023-03-01T04:00:02;19.80;;;8.33;;
17618;SDS011;8928;51.678;6.074;2023-03-01T04:02:50;17.30;;;7.57;;
17618;SDS011;8928;51.678;6.074;2023-03-01T04:05:41;16.03;;;7.67;;
17618;SDS011;8928;51.678;6.074;2023-03-01T04:08:28;18.20;;;8.00;;
17618;SDS011;8928;51.678;6.074;2023-03-01T04:11:17;15.57;;;7.60;;
17618;SDS011;8928;51.678;6.074;2023-03-01T04:14:13;19.03;;;8.03;;
17618;SDS011;8928;51.678;6.074;2023-03-01T04:17:00;16.23;;;7.93;;
17618;SDS011;8928;51.678;6.074;2023-03-01T04:19:50;16.00;;;7.93;;
17618;SDS011;8928;51.678;6.074;2023-03-01T04:22:37;17.73;;;7.77;;
17618;SDS011;8928;51.678;6.074;2023-03-01T04:25:24;17.70;;;8.20;;
17618;SDS011;8928;51.678;6.074;2023-03-01T04:28:13;18.87;;;8.40;;
17618;SDS011;8928;51.678;6.074;2023-03-01T04:31:02;17.47;;;8.37;;
17618;SDS011;8928;51.678;6.074;2023-03-01T04:33:58;20.77;;;8.57;;
17618;SDS011;8928;51.678;6.074;2023-03-01T04:36:45;20.13;;;8.67;;
17618;SDS011;8928;51.678;6.074;2023-03-01T04:39:32;16.93;;;8.10;;
17618;SDS011;8928;51.678;6.074;2023-03-01T04:42:19;20.17;;;7.80;;
17618;SDS011;8928;51.678;6.074;2023-03-01T04:45:08;21.17;;;8.57;;
17618;SDS011;8928;51.678;6.074;2023-03-01T04:47:58;20.63;;;8.60;;
17618;SDS011;8928;51.678;6.074;2023-03-01T04:50:45;18.53;;;8.63;;
17618;SDS011;8928;51.678;6.074;2023-03-01T04:53:32;17.53;;;8.37;;
17618;SDS011;8928;51.678;6.074;2023-03-01T04:56:21;17.93;;;8.80;;
17618;SDS011;8928;51.678;6.074;2023-03-01T04:59:08;19.13;;;8.97;;
17618;SDS011;8928;51.678;6.074;2023-03-01T05:01:59;18.83;;;8.17;;
17618;SDS011;8928;51.678;6.074;2023-03-01T05:04:46;20.20;;;8.60;;
17618;SDS011;8928;51.678;6.074;2023-03-01T05:07:33;21.10;;;9.07;;
17618;SDS011;8928;51.678;6.074;2023-03-01T05:10:22;19.33;;;8.50;;
17618;SDS011;8928;51.678;6.074;2023-03-01T05:13:09;16.80;;;8.37;;
17618;SDS011;8928;51.678;6.074;2023-03-01T05:15:57;18.10;;;8.23;;
17618;SDS011;8928;51.678;6.074;2023-03-01T05:18:46;19.83;;;8.63;;
17618;SDS011;8928;51.678;6.074;2023-03-01T05:21:35;17.20;;;8.30;;
17618;SDS011;8928;51.678;6.074;2023-03-01T05:24:42;22.50;;;8.87;;
17618;SDS011;8928;51.678;6.074;2023-03-01T05:27:29;18.97;;;8.50;;
17618;SDS011;8928;51.678;6.074;2023-03-01T05:30:17;16.90;;;7.97;;
17618;SDS011;8928;51.678;6.074;2023-03-01T05:33:04;20.40;;;8.93;;
17618;SDS011;8928;51.678;6.074;2023-03-01T05:35:59;18.93;;;8.43;;
17618;SDS011;8928;51.678;6.074;2023-03-01T05:38:46;18.73;;;8.80;;
17618;SDS011;8928;51.678;6.074;2023-03-01T05:41:33;17.57;;;8.30;;
17618;SDS011;8928;51.678;6.074;2023-03-01T05:44:21;20.40;;;8.73;;
17618;SDS011;8928;51.678;6.074;2023-03-01T05:47:08;19.43;;;8.53;;
17618;SDS011;8928;51.678;6.074;2023-03-01T05:49:55;19.97;;;8.70;;
17618;SDS011;8928;51.678;6.074;2023-03-01T05:52:43;20.53;;;8.60;;
17618;SDS011;8928;51.678;6.074;2023-03-01T05:55:31;21.63;;;8.80;;
17618;SDS011;8928;51.678;6.074;2023-03-01T05:58:19;19.17;;;8.73;;
17618;SDS011;8928;51.678;6.074;2023-03-01T06:01:10;17.77;;;8.53;;
17618;SDS011;8928;51.678;6.074;2023-03-01T06:03:57;20.77;;;9.00;;
17618;SDS011;8928;51.678;6.074;2023-03-01T06:06:45;20.00;;;9.13;;
17618;SDS011;8928;51.678;6.074;2023-03-01T06:09:33;19.10;;;8.57;;
17618;SDS011;8928;51.678;6.074;2023-03-01T06:12:20;18.70;;;8.50;;
17618;SDS011;8928;51.678;6.074;2023-03-01T06:15:08;18.57;;;8.70;;
17618;SDS011;8928;51.678;6.074;2023-03-01T06:17:56;19.83;;;9.07;;
17618;SDS011;8928;51.678;6.074;2023-03-01T06:20:43;20.20;;;9.03;;
17618;SDS011;8928;51.678;6.074;2023-03-01T06:23:30;20.37;;;9.33;;
17618;SDS011;8928;51.678;6.074;2023-03-01T06:26:19;21.93;;;9.27;;
17618;SDS011;8928;51.678;6.074;2023-03-01T06:29:06;20.40;;;9.53;;
17618;SDS011;8928;51.678;6.074;2023-03-01T06:31:53;21.43;;;9.33;;
17618;SDS011;8928;51.678;6.074;2023-03-01T06:34:42;20.83;;;9.20;;
17618;SDS011;8928;51.678;6.074;2023-03-01T06:37:29;23.87;;;10.07;;
17618;SDS011;8928;51.678;6.074;2023-03-01T06:40:17;20.10;;;9.27;;
17618;SDS011;8928;51.678;6.074;2023-03-01T06:43:06;27.23;;;11.33;;
17618;SDS011;8928;51.678;6.074;2023-03-01T06:45:53;29.77;;;13.13;;
17618;SDS011;8928;51.678;6.074;2023-03-01T06:48:40;27.47;;;13.37;;
17618;SDS011;8928;51.678;6.074;2023-03-01T06:51:27;28.13;;;12.97;;
17618;SDS011;8928;51.678;6.074;2023-03-01T06:54:14;26.23;;;12.20;;
17618;SDS011;8928;51.678;6.074;2023-03-01T06:57:03;25.20;;;11.00;;
17618;SDS011;8928;51.678;6.074;2023-03-01T06:59:51;28.77;;;11.40;;
17618;SDS011;8928;51.678;6.074;2023-03-01T07:02:38;23.03;;;9.93;;
17618;SDS011;8928;51.678;6.074;2023-03-01T07:05:25;22.33;;;10.03;;
17618;SDS011;8928;51.678;6.074;2023-03-01T07:08:12;21.73;;;9.67;;
17618;SDS011;8928;51.678;6.074;2023-03-01T07:10:59;19.97;;;9.53;;
17618;SDS011;8928;51.678;6.074;2023-03-01T07:13:47;24.47;;;10.07;;
17618;SDS011;8928;51.678;6.074;2023-03-01T07:16:36;19.53;;;9.03;;
17618;SDS011;8928;51.678;6.074;2023-03-01T07:19:23;22.57;;;9.87;;
17618;SDS011;8928;51.678;6.074;2023-03-01T07:22:10;22.33;;;9.90;;
17618;SDS011;8928;51.678;6.074;2023-03-01T07:24:57;23.87;;;10.17;;
17618;SDS011;8928;51.678;6.074;2023-03-01T07:27:48;22.77;;;9.83;;
17618;SDS011;8928;51.678;6.074;2023-03-01T07:30:36;20.60;;;9.43;;
17618;SDS011;8928;51.678;6.074;2023-03-01T07:33:24;26.27;;;10.47;;
17618;SDS011;8928;51.678;6.074;2023-03-01T07:36:11;20.97;;;10.03;;
17618;SDS011;8928;51.678;6.074;2023-03-01T07:38:58;21.97;;;10.17;;
17618;SDS011;8928;51.678;6.074;2023-03-01T07:41:47;21.67;;;10.40;;
17618;SDS011;8928;51.678;6.074;2023-03-01T07:44:34;23.83;;;10.53;;
17618;SDS011;8928;51.678;6.074;2023-03-01T07:47:21;21.13;;;10.30;;
17618;SDS011;8928;51.678;6.074;2023-03-01T07:50:10;21.00;;;10.33;;
17618;SDS011;8928;51.678;6.074;2023-03-01T07:52:58;21.90;;;10.57;;
17618;SDS011;8928;51.678;6.074;2023-03-01T07:55:45;21.97;;;9.83;;
17618;SDS011;8928;51.678;6.074;2023-03-01T07:58:33;20.27;;;10.07;;
17618;SDS011;8928;51.678;6.074;2023-03-01T08:01:21;21.07;;;9.73;;
17618;SDS011;8928;51.678;6.074;2023-03-01T08:04:09;20.23;;;9.93;;
17618;SDS011;8928;51.678;6.074;2023-03-01T08:06:57;19.87;;;10.03;;
17618;SDS011;8928;51.678;6.074;2023-03-01T08:09:44;21.47;;;9.33;;
17618;SDS011;8928;51.678;6.074;2023-03-01T08:12:31;19.37;;;9.63;;
17618;SDS011;8928;51.678;6.074;2023-03-01T08:15:18;18.57;;;9.33;;
17618;SDS011;8928;51.678;6.074;2023-03-01T08:18:05;18.53;;;8.87;;
17618;SDS011;8928;51.678;6.074;2023-03-01T08:20:52;18.73;;;9.50;;
17618;SDS011;8928;51.678;6.074;2023-03-01T08:23:40;16.87;;;8.77;;
17618;SDS011;8928;51.678;6.074;2023-03-01T08:26:28;17.93;;;8.60;;
17618;SDS011;8928;51.678;6.074;2023-03-01T08:29:15;18.43;;;9.13;;
17618;SDS011;8928;51.678;6.074;2023-03-01T08:32:02;17.90;;;8.50;;
17618;SDS011;8928;51.678;6.074;2023-03-01T08:34:50;17.33;;;8.10;;
17618;SDS011;8928;51.678;6.074;2023-03-01T08:37:37;19.07;;;8.53;;
17618;SDS011;8928;51.678;6.074;2023-03-01T08:40:25;16.07;;;8.20;;
17618;SDS011;8928;51.678;6.074;2023-03-01T08:43:12;15.90;;;8.23;;
17618;SDS011;8928;51.678;6.074;2023-03-01T08:45:59;16.30;;;8.33;;
17618;SDS011;8928;51.678;6.074;2023-03-01T08:48:46;16.27;;;8.20;;
17618;SDS011;8928;51.678;6.074;2023-03-01T08:51:34;16.03;;;7.77;;
17618;SDS011;8928;51.678;6.074;2023-03-01T08:54:22;14.87;;;7.70;;
17618;SDS011;8928;51.678;6.074;2023-03-01T08:57:11;16.43;;;7.73;;
17618;SDS011;8928;51.678;6.074;2023-03-01T08:59:58;16.00;;;7.80;;
17618;SDS011;8928;51.678;6.074;2023-03-01T09:02:45;14.97;;;7.70;;
17618;SDS011;8928;51.678;6.074;2023-03-01T09:05:32;18.93;;;7.70;;
17618;SDS011;8928;51.678;6.074;2023-03-01T09:08:19;15.10;;;7.13;;
17618;SDS011;8928;51.678;6.074;2023-03-01T09:11:07;14.27;;;7.30;;
17618;SDS011;8928;51.678;6.074;2023-03-01T09:13:57;13.77;;;7.03;;
17618;SDS011;8928;51.678;6.074;2023-03-01T09:16:44;15.63;;;7.47;;
17618;SDS011;8928;51.678;6.074;2023-03-01T09:19:31;17.00;;;7.37;;
17618;SDS011;8928;51.678;6.074;2023-03-01T09:22:18;16.23;;;7.90;;
17618;SDS011;8928;51.678;6.074;2023-03-01T09:25:05;20.17;;;7.13;;
17618;SDS011;8928;51.678;6.074;2023-03-01T09:27:53;17.67;;;7.80;;
17618;SDS011;8928;51.678;6.074;2023-03-01T09:30:41;16.67;;;7.60;;
17618;SDS011;8928;51.678;6.074;2023-03-01T09:33:29;15.43;;;7.30;;
17618;SDS011;8928;51.678;6.074;2023-03-01T09:36:18;19.57;;;7.00;;
17618;SDS011;8928;51.678;6.074;2023-03-01T09:39:07;12.57;;;7.37;;
17618;SDS011;8928;51.678;6.074;2023-03-01T09:41:56;13.47;;;7.20;;
17618;SDS011;8928;51.678;6.074;2023-03-01T09:44:48;12.93;;;7.23;;
17618;SDS011;8928;51.678;6.074;2023-03-01T09:47:39;14.70;;;7.30;;
17618;SDS011;8928;51.678;6.074;2023-03-01T09:50:28;14.63;;;6.67;;
17618;SDS011;8928;51.678;6.074;2023-03-01T09:53:20;13.97;;;6.83;;
17618;SDS011;8928;51.678;6.074;2023-03-01T09:56:12;14.03;;;7.00;;
17618;SDS011;8928;51.678;6.074;2023-03-01T09:59:07;14.67;;;7.17;;
17618;SDS011;8928;51.678;6.074;2023-03-01T10:02:05;14.27;;;7.20;;
17618;SDS011;8928;51.678;6.074;2023-03-01T10:05:12;19.40;;;7.37;;
17618;SDS011;8928;51.678;6.074;2023-03-01T10:08:11;16.30;;;7.30;;
17618;SDS011;8928;51.678;6.074;2023-03-01T10:11:17;13.27;;;7.27;;
17618;SDS011;8928;51.678;6.074;2023-03-01T10:14:15;13.73;;;6.87;;
17618;SDS011;8928;51.678;6.074;2023-03-01T10:17:16;21.17;;;7.07;;
17618;SDS011;8928;51.678;6.074;2023-03-01T10:20:21;11.50;;;6.43;;
17618;SDS011;8928;51.678;6.074;2023-03-01T10:23:10;12.57;;;7.10;;
17618;SDS011;8928;51.678;6.074;2023-03-01T10:26:02;16.60;;;7.27;;
17618;SDS011;8928;51.678;6.074;2023-03-01T10:28:59;11.37;;;6.50;;
17618;SDS011;8928;51.678;6.074;2023-03-01T10:31:49;13.70;;;6.53;;
17618;SDS011;8928;51.678;6.074;2023-03-01T10:34:37;13.40;;;7.07;;
17618;SDS011;8928;51.678;6.074;2023-03-01T10:37:26;12.13;;;6.20;;
17618;SDS011;8928;51.678;6.074;2023-03-01T10:40:13;11.20;;;6.20;;
17618;SDS011;8928;51.678;6.074;2023-03-01T10:43:01;12.87;;;6.80;;
17618;SDS011;8928;51.678;6.074;2023-03-01T10:45:51;10.93;;;6.13;;
17618;SDS011;8928;51.678;6.074;2023-03-01T10:48:38;13.03;;;6.53;;
17618;SDS011;8928;51.678;6.074;2023-03-01T10:51:25;11.67;;;6.40;;
17618;SDS011;8928;51.678;6.074;2023-03-01T10:54:18;11.87;;;6.20;;
17618;SDS011;8928;51.678;6.074;2023-03-01T10:57:10;11.20;;;5.93;;
17618;SDS011;8928;51.678;6.074;2023-03-01T11:00:16;11.10;;;5.70;;
17618;SDS011;8928;51.678;6.074;2023-03-01T11:05:53;13.43;;;6.23;;
17618;SDS011;8928;51.678;6.074;2023-03-01T11:08:43;12.67;;;6.40;;
17618;SDS011;8928;51.678;6.074;2023-03-01T11:11:33;9.20;;;5.57;;
17618;SDS011;8928;51.678;6.074;2023-03-01T11:14:21;10.50;;;5.93;;
17618;SDS011;8928;51.678;6.074;2023-03-01T11:17:12;10.60;;;5.90;;
17618;SDS011;8928;51.678;6.074;2023-03-01T11:20:05;11.97;;;6.00;;
17618;SDS011;8928;51.678;6.074;2023-03-01T11:23:03;11.03;;;5.80;;
17618;SDS011;8928;51.678;6.074;2023-03-01T11:25:54;11.27;;;6.03;;
17618;SDS011;8928;51.678;6.074;2023-03-01T11:28:44;12.30;;;6.20;;
17618;SDS011;8928;51.678;6.074;2023-03-01T11:31:38;13.30;;;5.93;;
17618;SDS011;8928;51.678;6.074;2023-03-01T11:34:29;10.47;;;5.77;;
17618;SDS011;8928;51.678;6.074;2023-03-01T11:37:30;11.17;;;6.13;;
17618;SDS011;8928;51.678;6.074;2023-03-01T11:40:22;13.13;;;5.90;;
17618;SDS011;8928;51.678;6.074;2023-03-01T11:43:12;9.10;;;5.27;;
17618;SDS011;8928;51.678;6.074;2023-03-01T11:49:31;9.87;;;5.83;;
17618;SDS011;8928;51.678;6.074;2023-03-01T11:52:39;11.17;;;5.70;;
17618;SDS011;8928;51.678;6.074;2023-03-01T11:55:41;11.93;;;5.93;;
17618;SDS011;8928;51.678;6.074;2023-03-01T11:58:49;13.60;;;5.43;;
17618;SDS011;8928;51.678;6.074;2023-03-01T12:01:51;8.23;;;5.10;;
17618;SDS011;8928;51.678;6.074;2023-03-01T12:04:54;10.63;;;5.83;;
17618;SDS011;8928;51.678;6.074;2023-03-01T12:08:04;10.67;;;5.93;;
17618;SDS011;8928;51.678;6.074;2023-03-01T12:11:01;10.13;;;6.03;;
17618;SDS011;8928;51.678;6.074;2023-03-01T12:13:59;10.17;;;6.20;;
17618;SDS011;8928;51.678;6.074;2023-03-01T12:17:16;10.77;;;5.77;;
17618;SDS011;8928;51.678;6.074;2023-03-01T12:20:20;11.27;;;6.00;;
17618;SDS011;8928;51.678;6.074;2023-03-01T12:26:35;12.60;;;6.67;;
17618;SDS011;8928;51.678;6.074;2023-03-01T12:29:30;10.93;;;6.10;;
17618;SDS011;8928;51.678;6.074;2023-03-01T12:32:24;10.37;;;6.03;;
17618;SDS011;8928;51.678;6.074;2023-03-01T12:35:22;12.40;;;6.53;;
17618;SDS011;8928;51.678;6.074;2023-03-01T12:38:22;12.97;;;6.73;;
17618;SDS011;8928;51.678;6.074;2023-03-01T12:44:37;10.53;;;6.30;;
17618;SDS011;8928;51.678;6.074;2023-03-01T12:47:40;13.03;;;7.13;;
17618;SDS011;8928;51.678;6.074;2023-03-01T12:50:36;12.10;;;6.73;;
17618;SDS011;8928;51.678;6.074;2023-03-01T12:53:28;12.37;;;6.20;;
17618;SDS011;8928;51.678;6.074;2023-03-01T12:56:18;12.67;;;6.40;;
17618;SDS011;8928;51.678;6.074;2023-03-01T12:59:09;10.57;;;6.00;;
17618;SDS011;8928;51.678;6.074;2023-03-01T13:02:02;9.30;;;5.60;;
17618;SDS011;8928;51.678;6.074;2023-03-01T13:05:05;9.57;;;5.63;;
17618;SDS011;8928;51.678;6.074;2023-03-01T13:08:06;10.73;;;5.73;;
17618;SDS011;8928;51.678;6.074;2023-03-01T13:10:58;10.83;;;5.63;;
17618;SDS011;8928;51.678;6.074;2023-03-01T13:13:48;13.03;;;5.77;;
17618;SDS011;8928;51.678;6.074;2023-03-01T13:16:40;10.00;;;5.93;;
17618;SDS011;8928;51.678;6.074;2023-03-01T13:19:30;10.70;;;5.87;;
17618;SDS011;8928;51.678;6.074;2023-03-01T13:22:29;10.63;;;5.97;;
17618;SDS011;8928;51.678;6.074;2023-03-01T13:25:19;9.53;;;6.00;;
17618;SDS011;8928;51.678;6.074;2023-03-01T13:34:48;11.47;;;6.43;;
17618;SDS011;8928;51.678;6.074;2023-03-01T13:37:47;11.07;;;6.37;;
17618;SDS011;8928;51.678;6.074;2023-03-01T13:43:45;10.70;;;6.50;;
17618;SDS011;8928;51.678;6.074;2023-03-01T13:46:34;14.77;;;7.67;;
17618;SDS011;8928;51.678;6.074;2023-03-01T13:49:22;9.57;;;6.10;;
17618;SDS011;8928;51.678;6.074;2023-03-01T13:52:35;12.70;;;6.30;;
17618;SDS011;8928;51.678;6.074;2023-03-01T13:55:32;11.50;;;6.43;;
17618;SDS011;8928;51.678;6.074;2023-03-01T13:58:24;12.23;;;6.20;;
17618;SDS011;8928;51.678;6.074;2023-03-01T14:01:20;12.27;;;6.67;;
17618;SDS011;8928;51.678;6.074;2023-03-01T14:04:18;9.30;;;6.20;;
17618;SDS011;8928;51.678;6.074;2023-03-01T14:07:08;11.23;;;6.43;;
17618;SDS011;8928;51.678;6.074;2023-03-01T14:09:58;11.47;;;6.70;;
17618;SDS011;8928;51.678;6.074;2023-03-01T14:12:50;10.05;;;6.13;;
17618;SDS011;8928;51.678;6.074;2023-03-01T14:15:42;12.18;;;6.40;;
17618;SDS011;8928;51.678;6.074;2023-03-01T14:18:36;9.77;;;6.35;;
17618;SDS011;8928;51.678;6.074;2023-03-01T14:21:32;11.00;;;6.38;;
17618;SDS011;8928;51.678;6.074;2023-03-01T14:24:21;10.48;;;6.30;;
17618;SDS011;8928;51.678;6.074;2023-03-01T14:27:10;11.30;;;6.50;;
17618;SDS011;8928;51.678;6.074;2023-03-01T14:30:00;10.80;;;6.53;;
17618;SDS011;8928;51.678;6.074;2023-03-01T14:32:53;9.38;;;6.50;;
17618;SDS011;8928;51.678;6.074;2023-03-01T14:35:41;10.07;;;6.43;;
17618;SDS011;8928;51.678;6.074;2023-03-01T14:38:29;13.82;;;8.10;;
17618;SDS011;8928;51.678;6.074;2023-03-01T14:41:20;12.77;;;7.93;;
17618;SDS011;8928;51.678;6.074;2023-03-01T14:44:12;14.55;;;7.03;;
17618;SDS011;8928;51.678;6.074;2023-03-01T14:47:05;11.07;;;7.03;;
17618;SDS011;8928;51.678;6.074;2023-03-01T14:49:53;11.93;;;7.30;;
17618;SDS011;8928;51.678;6.074;2023-03-01T14:52:45;10.52;;;7.05;;
17618;SDS011;8928;51.678;6.074;2023-03-01T14:55:35;13.30;;;7.32;;
17618;SDS011;8928;51.678;6.074;2023-03-01T14:58:26;13.20;;;7.10;;
17618;SDS011;8928;51.678;6.074;2023-03-01T15:01:13;12.35;;;7.53;;
17618;SDS011;8928;51.678;6.074;2023-03-01T15:04:04;12.07;;;7.30;;
17618;SDS011;8928;51.678;6.074;2023-03-01T15:06:52;12.85;;;7.38;;
17618;SDS011;8928;51.678;6.074;2023-03-01T15:09:41;10.70;;;7.15;;
17618;SDS011;8928;51.678;6.074;2023-03-01T15:12:35;11.07;;;6.72;;
17618;SDS011;8928;51.678;6.074;2023-03-01T15:15:34;11.95;;;6.95;;
17618;SDS011;8928;51.678;6.074;2023-03-01T15:18:25;11.15;;;7.35;;
17618;SDS011;8928;51.678;6.074;2023-03-01T15:21:16;12.02;;;7.32;;
17618;SDS011;8928;51.678;6.074;2023-03-01T15:24:06;12.52;;;6.82;;
17618;SDS011;8928;51.678;6.074;2023-03-01T15:27:13;12.73;;;7.07;;
17618;SDS011;8928;51.678;6.074;2023-03-01T15:30:02;14.73;;;7.18;;
17618;SDS011;8928;51.678;6.074;2023-03-01T15:36:31;10.95;;;6.80;;
17618;SDS011;8928;51.678;6.074;2023-03-01T15:39:27;10.27;;;6.67;;
17618;SDS011;8928;51.678;6.074;2023-03-01T15:42:35;12.27;;;6.97;;
17618;SDS011;8928;51.678;6.074;2023-03-01T15:45:24;13.43;;;7.60;;
17618;SDS011;8928;51.678;6.074;2023-03-01T15:48:14;12.77;;;7.30;;
17618;SDS011;8928;51.678;6.074;2023-03-01T15:51:09;13.80;;;7.30;;
17618;SDS011;8928;51.678;6.074;2023-03-01T15:54:01;11.57;;;6.90;;
17618;SDS011;8928;51.678;6.074;2023-03-01T15:56:51;11.47;;;7.00;;
17618;SDS011;8928;51.678;6.074;2023-03-01T15:59:38;14.43;;;7.67;;
17618;SDS011;8928;51.678;6.074;2023-03-01T16:02:25;16.90;;;7.57;;
17618;SDS011;8928;51.678;6.074;2023-03-01T16:05:17;12.40;;;7.13;;
17618;SDS011;8928;51.678;6.074;2023-03-01T16:08:08;11.93;;;6.47;;
17618;SDS011;8928;51.678;6.074;2023-03-01T16:10:57;11.43;;;6.67;;
17618;SDS011;8928;51.678;6.074;2023-03-01T16:13:44;12.97;;;7.13;;
17618;SDS011;8928;51.678;6.074;2023-03-01T16:16:31;12.90;;;6.73;;
17618;SDS011;8928;51.678;6.074;2023-03-01T16:19:18;12.90;;;6.70;;
17618;SDS011;8928;51.678;6.074;2023-03-01T16:22:05;14.13;;;6.90;;
17618;SDS011;8928;51.678;6.074;2023-03-01T16:24:53;16.50;;;7.37;;
17618;SDS011;8928;51.678;6.074;2023-03-01T16:27:42;17.10;;;7.40;;
17618;SDS011;8928;51.678;6.074;2023-03-01T16:30:30;13.87;;;7.17;;
17618;SDS011;8928;51.678;6.074;2023-03-01T16:33:17;11.07;;;6.03;;
17618;SDS011;8928;51.678;6.074;2023-03-01T16:36:08;11.70;;;5.80;;
17618;SDS011;8928;51.678;6.074;2023-03-01T16:38:57;11.47;;;6.10;;
17618;SDS011;8928;51.678;6.074;2023-03-01T16:41:45;13.37;;;5.90;;
17618;SDS011;8928;51.678;6.074;2023-03-01T16:44:34;11.37;;;5.73;;
17618;SDS011;8928;51.678;6.074;2023-03-01T16:47:21;10.70;;;5.63;;
17618;SDS011;8928;51.678;6.074;2023-03-01T16:50:08;9.60;;;5.17;;
17618;SDS011;8928;51.678;6.074;2023-03-01T16:52:56;12.07;;;5.53;;
17618;SDS011;8928;51.678;6.074;2023-03-01T16:55:43;11.80;;;5.40;;
17618;SDS011;8928;51.678;6.074;2023-03-01T16:58:30;13.63;;;5.63;;
17618;SDS011;8928;51.678;6.074;2023-03-01T17:01:19;12.53;;;5.40;;
17618;SDS011;8928;51.678;6.074;2023-03-01T17:04:10;11.07;;;5.40;;
17618;SDS011;8928;51.678;6.074;2023-03-01T17:06:58;11.33;;;5.20;;
17618;SDS011;8928;51.678;6.074;2023-03-01T17:09:45;13.73;;;5.33;;
17618;SDS011;8928;51.678;6.074;2023-03-01T17:12:32;12.30;;;5.57;;
17618;SDS011;8928;51.678;6.074;2023-03-01T17:15:19;9.57;;;5.10;;
17618;SDS011;8928;51.678;6.074;2023-03-01T17:18:08;11.77;;;5.70;;
17618;SDS011;8928;51.678;6.074;2023-03-01T17:20:55;13.53;;;5.30;;
17618;SDS011;8928;51.678;6.074;2023-03-01T17:23:43;13.63;;;5.70;;
17618;SDS011;8928;51.678;6.074;2023-03-01T17:26:31;16.33;;;6.07;;
17618;SDS011;8928;51.678;6.074;2023-03-01T17:29:18;11.57;;;5.87;;
17618;SDS011;8928;51.678;6.074;2023-03-01T17:32:05;13.97;;;5.63;;